Time;durP1;ratioP1;P1;durP2;ratioP2;P2;SDS_P1;SDS_P2;PMS_P1;PMS_P2;Temp;Humidity;BMP_temperature;BMP_pressure;BME280_temperature;BME280_humidity;BME280_pressure;Samples;Min_cycle;Max_cycle;Signal;HPM_P1;HPM_P2
2023/03/26 00:00:04;;;;;;;5.70;1.50;;;;;;;;;;4969913;28;20058;-66
2023/03/26 00:02:32;;;;;;;4.25;1.15;;;;;;;;;;4955916;28;20054;-69
2023/03/26 00:04:58;;;;;;;6.40;1.20;;;;;;;;;;4953936;28;20054;-68
2023/03/26 00:07:26;;;;;;;6.43;1.33;;;;;;;;;;4976067;28;20092;-67
2023/03/26 00:09:54;;;;;;;5.05;1.30;;;;;;;;;;4981610;28;20057;-69
2023/03/26 00:12:21;;;;;;;8.30;1.65;;;;;;;;;;4973763;28;20153;-70
2023/03/26 00:14:47;;;;;;;8.25;1.50;;;;;;;;;;4983975;28;20112;-69
2023/03/26 00:17:14;;;;;;;4.72;1.15;;;;;;;;;;4997598;28;20140;-70
2023/03/26 00:19:41;;;;;;;4.97;1.25;;;;;;;;;;5008619;28;20058;-69
2023/03/26 00:22:10;;;;;;;4.05;1.40;;;;;;;;;;4977484;28;20074;-68
2023/03/26 00:24:38;;;;;;;4.93;1.27;;;;;;;;;;4975290;28;20159;-70
2023/03/26 00:27:07;;;;;;;5.70;1.38;;;;;;;;;;4969178;28;20083;-69
2023/03/26 00:29:34;;;;;;;8.32;1.58;;;;;;;;;;4988221;28;20081;-68
2023/03/26 00:32:01;;;;;;;3.63;1.10;;;;;;;;;;4972212;28;20089;-70
2023/03/26 00:34:27;;;;;;;5.05;1.48;;;;;;;;;;4995621;28;20123;-68
2023/03/26 00:36:53;;;;;;;6.05;1.58;;;;;;;;;;4964964;28;20432;-67
2023/03/26 00:39:22;;;;;;;6.80;1.48;;;;;;;;;;4932767;28;20134;-68
2023/03/26 00:41:53;;;;;;;;;;;;;;;;;;4960252;28;20054;-68
2023/03/26 00:44:21;;;;;;;6.45;1.65;;;;;;;;;;4975894;28;19925;-67
2023/03/26 00:46:47;;;;;;;5.28;1.10;;;;;;;;;;4958448;28;20054;-69
2023/03/26 00:49:14;;;;;;;4.88;1.40;;;;;;;;;;4962163;28;20163;-69
2023/03/26 00:51:41;;;;;;;9.48;1.70;;;;;;;;;;4957871;28;20142;-70
2023/03/26 00:54:09;;;;;;;5.80;1.20;;;;;;;;;;4973674;28;20116;-70
2023/03/26 00:56:37;;;;;;;10.02;1.27;;;;;;;;;;4982726;28;20050;-67
2023/03/26 00:59:03;;;;;;;5.32;1.27;;;;;;;;;;4972353;28;20066;-66
2023/03/26 01:01:31;;;;;;;4.38;1.10;;;;;;;;;;4949429;28;20165;-68
2023/03/26 01:03:59;;;;;;;5.20;1.20;;;;;;;;;;4972018;28;20120;-68
2023/03/26 01:06:31;;;;;;;7.05;1.45;;;;;;;;;;4964249;28;20072;-70
2023/03/26 01:08:59;;;;;;;5.25;1.50;;;;;;;;;;4943561;28;20104;-70
2023/03/26 01:11:26;;;;;;;6.82;1.33;;;;;;;;;;4981787;28;20058;-68
2023/03/26 01:13:54;;;;;;;7.93;1.50;;;;;;;;;;4981828;28;20062;-67
2023/03/26 01:16:23;;;;;;;7.33;1.23;;;;;;;;;;4985909;28;20392;-71
2023/03/26 01:18:52;;;;;;;4.95;1.17;;;;;;;;;;4962319;28;20385;-70
2023/03/26 01:21:21;;;;;;;;;;;;;;;;;;4955602;28;20054;-68
2023/03/26 01:23:49;;;;;;;6.03;1.80;;;;;;;;;;4963221;28;20005;-69
2023/03/26 01:26:25;;;;;;;11.75;1.77;;;;;;;;;;4956586;28;20171;-69
2023/03/26 01:28:54;;;;;;;9.18;1.63;;;;;;;;;;4958966;28;20165;-67
2023/03/26 01:31:28;;;;;;;7.97;1.52;;;;;;;;;;4963894;28;20142;-70
2023/03/26 01:33:56;;;;;;;7.38;1.58;;;;;;;;;;4967721;28;20149;-69
2023/03/26 01:36:25;;;;;;;7.70;1.33;;;;;;;;;;4974672;28;20089;-68
2023/03/26 01:38:58;;;;;;;7.63;1.30;;;;;;;;;;4956718;28;20103;-68
2023/03/26 01:41:29;;;;;;;5.68;1.58;;;;;;;;;;4959358;28;20058;-67
2023/03/26 01:44:00;;;;;;;4.88;1.23;;;;;;;;;;4965735;28;20078;-67
2023/03/26 01:46:27;;;;;;;5.85;1.30;;;;;;;;;;4964034;28;20148;-71
2023/03/26 01:48:54;;;;;;;7.15;1.38;;;;;;;;;;4967866;28;20065;-69
2023/03/26 01:51:27;;;;;;;4.22;1.42;;;;;;;;;;4954111;28;20108;-70
2023/03/26 01:53:54;;;;;;;6.32;1.63;;;;;;;;;;4964235;28;20086;-70
2023/03/26 01:56:23;;;;;;;6.82;1.48;;;;;;;;;;4962132;28;20050;-71
2023/03/26 01:58:49;;;;;;;;;;;;;;;;;;4955011;28;20068;-69
2023/03/26 02:01:23;;;;;;;6.28;1.23;;;;;;;;;;4957261;28;19968;-69
2023/03/26 02:03:53;;;;;;;8.45;1.40;;;;;;;;;;4947142;28;20050;-69
2023/03/26 02:06:24;;;;;;;9.45;1.63;;;;;;;;;;4947287;28;20088;-67
2023/03/26 02:08:52;;;;;;;7.07;1.40;;;;;;;;;;4967890;28;20046;-71
2023/03/26 02:11:19;;;;;;;11.57;1.35;;;;;;;;;;4963429;28;20145;-71
2023/03/26 02:13:46;;;;;;;6.95;1.48;;;;;;;;;;4970062;28;20169;-70
2023/03/26 02:16:15;;;;;;;7.43;1.67;;;;;;;;;;4990788;28;20064;-69
2023/03/26 02:18:43;;;;;;;7.10;1.67;;;;;;;;;;4992642;28;20054;-70
2023/03/26 02:21:11;;;;;;;8.38;1.33;;;;;;;;;;4972991;28;20110;-67
2023/03/26 02:23:39;;;;;;;6.80;1.83;;;;;;;;;;4993796;28;20053;-69
2023/03/26 02:26:06;;;;;;;6.05;1.80;;;;;;;;;;4985056;28;20308;-68
2023/03/26 02:28:32;;;;;;;10.15;1.95;;;;;;;;;;4978899;28;20062;-69
2023/03/26 02:36:07;;;;;;;8.48;1.77;;;;;;;;;;4932006;28;20175;-67
2023/03/26 02:38:36;;;;;;;8.35;2.05;;;;;;;;;;4949435;28;20093;-68
2023/03/26 02:41:05;;;;;;;4.80;1.45;;;;;;;;;;4947909;28;20047;-67
2023/03/26 02:43:33;;;;;;;9.40;1.88;;;;;;;;;;4945756;28;20065;-69
2023/03/26 02:45:59;;;;;;;7.60;1.63;;;;;;;;;;4882894;28;20058;-71
2023/03/26 02:48:26;;;;;;;9.68;1.65;;;;;;;;;;4941153;28;20055;-69
2023/03/26 02:50:56;;;;;;;10.88;1.65;;;;;;;;;;4943251;28;20058;-67
2023/03/26 02:53:28;;;;;;;7.75;1.50;;;;;;;;;;4923270;28;20059;-68
2023/03/26 02:55:57;;;;;;;5.70;1.45;;;;;;;;;;4926195;28;20063;-68
2023/03/26 02:58:24;;;;;;;11.80;1.75;;;;;;;;;;4954848;28;20109;-69
2023/03/26 03:00:53;;;;;;;7.80;1.73;;;;;;;;;;4937589;28;20054;-71
2023/03/26 03:03:23;;;;;;;13.52;2.30;;;;;;;;;;4931551;28;20055;-68
2023/03/26 03:05:50;;;;;;;13.00;2.15;;;;;;;;;;4926367;28;20126;-70
2023/03/26 03:08:17;;;;;;;11.20;2.90;;;;;;;;;;4939281;28;20058;-66
2023/03/26 03:10:55;;;;;;;11.30;1.73;;;;;;;;;;4950989;28;20055;-69
2023/03/26 03:13:21;;;;;;;10.03;2.73;;;;;;;;;;4929771;28;21601;-70
2023/03/26 03:15:47;;;;;;;9.93;2.10;;;;;;;;;;4932777;28;20365;-70
2023/03/26 03:18:14;;;;;;;8.82;1.67;;;;;;;;;;4932822;28;20078;-65
2023/03/26 03:20:40;;;;;;;8.57;2.10;;;;;;;;;;4955978;28;20154;-69
2023/03/26 03:23:07;;;;;;;11.73;2.38;;;;;;;;;;4934274;28;20054;-69
2023/03/26 03:25:33;;;;;;;11.50;2.17;;;;;;;;;;4947148;28;20051;-66
2023/03/26 03:28:01;;;;;;;12.15;2.33;;;;;;;;;;4941742;28;20170;-66
2023/03/26 03:30:27;;;;;;;10.70;2.22;;;;;;;;;;4917249;28;20062;-69
2023/03/26 03:32:57;;;;;;;10.52;2.20;;;;;;;;;;4937160;28;20137;-67
2023/03/26 03:35:23;;;;;;;8.45;1.80;;;;;;;;;;4923907;28;20055;-68
2023/03/26 03:37:50;;;;;;;5.55;1.92;;;;;;;;;;4945808;28;20145;-69
2023/03/26 03:40:16;;;;;;;7.38;2.10;;;;;;;;;;4948418;28;20062;-68
2023/03/26 03:42:43;;;;;;;9.73;2.22;;;;;;;;;;4956458;28;20142;-66
2023/03/26 03:45:13;;;;;;;7.93;1.88;;;;;;;;;;4931688;28;20154;-70
2023/03/26 03:47:39;;;;;;;7.35;2.15;;;;;;;;;;4937837;28;20086;-68
2023/03/26 03:50:07;;;;;;;7.38;1.90;;;;;;;;;;4957392;28;20058;-68
2023/03/26 03:52:33;;;;;;;7.03;1.98;;;;;;;;;;4954266;28;20069;-71
2023/03/26 03:55:00;;;;;;;7.90;1.85;;;;;;;;;;4929924;28;20149;-68
2023/03/26 03:57:27;;;;;;;7.95;2.17;;;;;;;;;;4927054;28;20065;-69
2023/03/26 03:59:56;;;;;;;12.90;2.30;;;;;;;;;;4955076;28;20071;-68
2023/03/26 04:02:29;;;;;;;6.32;2.08;;;;;;;;;;4957467;28;20070;-66
2023/03/26 04:04:56;;;;;;;6.20;1.77;;;;;;;;;;4907154;29;20047;-67
2023/03/26 04:07:22;;;;;;;9.55;2.25;;;;;;;;;;4913356;28;20050;-69
2023/03/26 04:09:49;;;;;;;11.32;2.20;;;;;;;;;;4940250;28;20055;-66
2023/03/26 04:12:15;;;;;;;7.68;1.90;;;;;;;;;;4933655;28;20058;-71
2023/03/26 04:14:42;;;;;;;12.50;2.20;;;;;;;;;;4939485;29;20105;-71
2023/03/26 04:17:09;;;;;;;7.55;1.77;;;;;;;;;;4933979;28;20123;-66
2023/03/26 04:19:37;;;;;;;7.82;1.92;;;;;;;;;;4957057;28;20154;-67
2023/03/26 04:22:03;;;;;;;6.13;1.58;;;;;;;;;;4946011;28;20047;-68
2023/03/26 04:24:32;;;;;;;12.70;2.10;;;;;;;;;;4954038;28;20054;-68
2023/03/26 04:27:00;;;;;;;5.25;1.50;;;;;;;;;;4945495;28;20050;-67
2023/03/26 04:29:26;;;;;;;8.73;2.08;;;;;;;;;;4917607;28;20061;-68
2023/03/26 04:31:57;;;;;;;7.45;1.80;;;;;;;;;;4941785;28;20057;-65
2023/03/26 04:34:24;;;;;;;7.55;2.00;;;;;;;;;;4927493;28;20061;-70
2023/03/26 04:36:53;;;;;;;7.32;1.67;;;;;;;;;;4945534;28;20051;-69
2023/03/26 04:39:20;;;;;;;7.25;1.60;;;;;;;;;;4933118;28;20062;-70
2023/03/26 04:41:47;;;;;;;6.85;1.73;;;;;;;;;;4937837;28;20055;-68
2023/03/26 04:44:16;;;;;;;5.72;1.63;;;;;;;;;;4931761;28;20059;-67
2023/03/26 04:46:42;;;;;;;9.20;1.90;;;;;;;;;;4937302;28;20062;-70
2023/03/26 04:49:09;;;;;;;6.70;1.73;;;;;;;;;;4922616;28;20073;-69
2023/03/26 04:51:38;;;;;;;6.28;1.92;;;;;;;;;;4932393;28;20062;-70
2023/03/26 04:54:06;;;;;;;7.22;1.50;;;;;;;;;;4941609;28;20063;-66
2023/03/26 04:56:40;;;;;;;7.13;1.48;;;;;;;;;;4934857;29;20062;-69
2023/03/26 04:59:06;;;;;;;7.30;1.70;;;;;;;;;;4914140;28;20066;-67
2023/03/26 05:01:36;;;;;;;6.88;2.13;;;;;;;;;;4952028;28;20114;-69
2023/03/26 05:04:02;;;;;;;6.75;1.52;;;;;;;;;;4937915;28;20339;-68
2023/03/26 05:06:33;;;;;;;7.35;1.80;;;;;;;;;;4933690;28;20149;-68
2023/03/26 05:09:02;;;;;;;8.07;1.40;;;;;;;;;;4924543;28;20055;-68
2023/03/26 05:11:29;;;;;;;12.18;2.03;;;;;;;;;;4934161;28;20485;-67
2023/03/26 05:13:56;;;;;;;9.53;1.70;;;;;;;;;;4916254;28;20060;-68
2023/03/26 05:16:22;;;;;;;9.23;1.75;;;;;;;;;;4920099;28;20055;-68
2023/03/26 05:18:50;;;;;;;7.05;1.70;;;;;;;;;;4944077;28;20191;-68
2023/03/26 05:21:17;;;;;;;7.40;1.70;;;;;;;;;;4931488;28;20069;-70
2023/03/26 05:23:43;;;;;;;6.03;1.98;;;;;;;;;;4919996;28;20174;-69
2023/03/26 05:26:10;;;;;;;6.25;1.90;;;;;;;;;;4938362;28;20083;-68
2023/03/26 05:28:38;;;;;;;6.32;1.75;;;;;;;;;;4933454;28;20097;-69
2023/03/26 05:31:05;;;;;;;9.23;1.47;;;;;;;;;;4932969;28;20059;-69
2023/03/26 05:33:32;;;;;;;10.45;1.38;;;;;;;;;;4950609;28;20070;-68
2023/03/26 05:35:59;;;;;;;6.00;1.77;;;;;;;;;;4945343;28;20058;-69
2023/03/26 05:38:27;;;;;;;5.63;1.55;;;;;;;;;;4936016;28;20062;-67
2023/03/26 05:40:57;;;;;;;7.80;1.80;;;;;;;;;;4947300;28;20051;-71
2023/03/26 05:43:24;;;;;;;6.50;1.92;;;;;;;;;;4922908;28;20087;-70
2023/03/26 05:45:52;;;;;;;7.55;1.30;;;;;;;;;;4918271;28;20105;-68
2023/03/26 05:48:19;;;;;;;7.22;1.63;;;;;;;;;;4924204;28;20067;-69
2023/03/26 05:50:47;;;;;;;14.43;1.83;;;;;;;;;;4914760;28;21449;-70
2023/03/26 05:53:14;;;;;;;6.33;1.57;;;;;;;;;;4928549;28;20126;-68
2023/03/26 05:55:44;;;;;;;10.18;2.13;;;;;;;;;;4934011;28;20145;-70
2023/03/26 05:58:11;;;;;;;6.22;1.70;;;;;;;;;;4933165;28;20199;-69
2023/03/26 06:00:38;;;;;;;11.10;2.00;;;;;;;;;;4936330;28;20082;-69
2023/03/26 06:03:11;;;;;;;9.10;1.67;;;;;;;;;;4936751;28;20062;-72
2023/03/26 06:05:38;;;;;;;9.07;1.73;;;;;;;;;;4914157;28;20064;-70
2023/03/26 06:08:07;;;;;;;6.57;1.70;;;;;;;;;;4916384;28;20384;-72
2023/03/26 06:10:38;;;;;;;6.22;1.52;;;;;;;;;;4934610;29;20140;-68
2023/03/26 06:13:04;;;;;;;7.30;1.63;;;;;;;;;;4923377;28;20055;-69
2023/03/26 06:15:31;;;;;;;6.07;2.00;;;;;;;;;;4927633;28;20062;-69
2023/03/26 06:17:57;;;;;;;8.60;1.70;;;;;;;;;;4931961;28;20137;-70
2023/03/26 06:20:25;;;;;;;9.82;1.75;;;;;;;;;;4930131;29;20062;-68
2023/03/26 06:22:54;;;;;;;7.95;1.52;;;;;;;;;;4931829;28;20050;-71
2023/03/26 06:25:24;;;;;;;7.90;1.60;;;;;;;;;;4920854;28;22131;-71
2023/03/26 06:27:51;;;;;;;5.13;1.50;;;;;;;;;;4932926;28;20051;-68
2023/03/26 06:30:17;;;;;;;8.63;1.80;;;;;;;;;;4928356;28;20090;-70
2023/03/26 06:32:44;;;;;;;6.63;1.42;;;;;;;;;;4911360;29;20137;-68
2023/03/26 06:35:11;;;;;;;10.00;1.75;;;;;;;;;;4901270;28;20119;-68
2023/03/26 06:37:39;;;;;;;4.68;1.38;;;;;;;;;;4934517;28;20090;-72
2023/03/26 06:40:07;;;;;;;4.88;1.42;;;;;;;;;;4939020;28;20081;-66
2023/03/26 06:42:34;;;;;;;11.00;1.92;;;;;;;;;;4921200;28;20061;-70
2023/03/26 06:45:01;;;;;;;8.27;1.55;;;;;;;;;;4919956;28;20066;-71
2023/03/26 06:47:31;;;;;;;8.10;1.83;;;;;;;;;;4910236;28;20055;-69
2023/03/26 06:49:57;;;;;;;7.33;1.20;;;;;;;;;;4948115;28;20055;-68
2023/03/26 06:52:24;;;;;;;6.75;1.75;;;;;;;;;;4915060;29;20075;-68
2023/03/26 06:54:52;;;;;;;9.77;1.60;;;;;;;;;;4926360;28;20063;-71
2023/03/26 06:57:22;;;;;;;7.80;1.30;;;;;;;;;;4943161;28;20253;-68
2023/03/26 06:59:48;;;;;;;5.30;1.50;;;;;;;;;;4947409;28;20056;-72
2023/03/26 07:02:17;;;;;;;10.10;1.65;;;;;;;;;;4927525;28;20110;-72
2023/03/26 07:04:44;;;;;;;8.48;1.52;;;;;;;;;;4917064;28;20059;-72
2023/03/26 07:07:12;;;;;;;6.18;1.88;;;;;;;;;;4891862;28;20079;-68
2023/03/26 07:14:31;;;;;;;4.20;1.27;;;;;;;;;;4825426;29;20052;-67
2023/03/26 07:16:58;;;;;;;8.25;1.58;;;;;;;;;;4892838;29;20057;-70
2023/03/26 07:19:30;;;;;;;10.32;1.63;;;;;;;;;;4906187;28;20054;-68
2023/03/26 07:21:57;;;;;;;7.07;1.45;;;;;;;;;;4955193;28;20117;-67
2023/03/26 07:24:24;;;;;;;16.60;1.83;;;;;;;;;;4939045;28;20070;-70
2023/03/26 07:26:56;;;;;;;8.07;1.70;;;;;;;;;;4903297;28;20055;-69
2023/03/26 07:29:32;;;;;;;7.38;1.48;;;;;;;;;;4947053;28;20121;-67
2023/03/26 07:32:03;;;;;;;7.38;1.45;;;;;;;;;;4908603;29;20154;-70
2023/03/26 07:34:40;;;;;;;6.32;1.55;;;;;;;;;;4903466;28;20130;-70
2023/03/26 07:37:13;;;;;;;9.55;2.22;;;;;;;;;;4935485;28;20130;-71
2023/03/26 07:39:44;;;;;;;5.45;1.67;;;;;;;;;;4921226;28;20063;-70
2023/03/26 07:42:16;;;;;;;6.63;1.50;;;;;;;;;;4930072;28;20162;-71
2023/03/26 07:44:48;;;;;;;12.30;1.75;;;;;;;;;;4905008;28;20138;-70
2023/03/26 07:47:24;;;;;;;11.10;1.70;;;;;;;;;;4910138;28;20472;-71
2023/03/26 07:49:51;;;;;;;9.15;1.85;;;;;;;;;;4936798;28;20094;-67
2023/03/26 07:52:18;;;;;;;6.35;1.70;;;;;;;;;;4933664;28;20086;-70
2023/03/26 07:54:45;;;;;;;10.10;1.90;;;;;;;;;;4942809;28;20054;-68
2023/03/26 07:57:15;;;;;;;8.25;1.60;;;;;;;;;;4930760;28;20113;-67
2023/03/26 07:59:45;;;;;;;7.60;1.70;;;;;;;;;;4942717;28;20062;-70
2023/03/26 08:02:24;;;;;;;6.80;1.65;;;;;;;;;;4935240;28;20071;-70
2023/03/26 08:04:57;;;;;;;12.65;1.92;;;;;;;;;;4910370;28;20079;-72
2023/03/26 08:07:33;;;;;;;9.75;1.65;;;;;;;;;;4928901;28;20059;-69
2023/03/26 08:10:03;;;;;;;10.70;1.70;;;;;;;;;;4956537;28;20051;-67
2023/03/26 08:12:36;;;;;;;9.48;1.88;;;;;;;;;;4930834;28;20054;-67
2023/03/26 08:15:09;;;;;;;4.05;1.45;;;;;;;;;;4899604;28;20082;-70
2023/03/26 08:17:38;;;;;;;12.13;1.95;;;;;;;;;;4931263;28;20058;-68
2023/03/26 08:20:17;;;;;;;6.63;1.50;;;;;;;;;;4952743;28;20081;-68
2023/03/26 08:22:49;;;;;;;13.50;2.42;;;;;;;;;;4898901;28;20055;-67
2023/03/26 08:25:26;;;;;;;8.32;1.73;;;;;;;;;;4904872;28;20250;-66
2023/03/26 08:27:57;;;;;;;13.18;1.90;;;;;;;;;;4931333;28;20058;-69
2023/03/26 08:30:25;;;;;;;10.90;2.33;;;;;;;;;;4953303;28;20062;-70
2023/03/26 08:35:40;;;;;;;9.07;1.85;;;;;;;;;;4928324;28;20067;-71
2023/03/26 08:38:07;;;;;;;7.50;1.77;;;;;;;;;;4923370;28;20062;-68
2023/03/26 08:40:50;;;;;;;6.60;1.90;;;;;;;;;;4928381;28;20063;-68
2023/03/26 08:43:35;;;;;;;7.53;2.00;;;;;;;;;;4938458;28;20066;-70
2023/03/26 08:46:11;;;;;;;9.07;1.70;;;;;;;;;;4925446;28;20091;-68
2023/03/26 08:48:53;;;;;;;9.27;2.33;;;;;;;;;;4937986;28;20059;-71
2023/03/26 08:51:46;;;;;;;10.77;1.90;;;;;;;;;;4937736;28;20055;-70
2023/03/26 08:54:29;;;;;;;7.90;2.10;;;;;;;;;;4894993;28;20055;-69
2023/03/26 08:57:03;;;;;;;9.48;1.95;;;;;;;;;;4920607;28;21794;-69
2023/03/26 08:59:45;;;;;;;12.73;1.98;;;;;;;;;;4915432;28;20118;-70
2023/03/26 09:02:20;;;;;;;10.00;2.22;;;;;;;;;;4923529;28;20103;-71
2023/03/26 09:05:05;;;;;;;5.38;1.67;;;;;;;;;;4931101;28;20086;-71
2023/03/26 09:07:50;;;;;;;6.80;2.10;;;;;;;;;;4923950;28;20063;-71
2023/03/26 09:10:36;;;;;;;11.43;2.15;;;;;;;;;;4910363;28;20065;-71
2023/03/26 09:13:24;;;;;;;11.15;2.25;;;;;;;;;;4937445;28;20059;-71
2023/03/26 09:16:10;;;;;;;6.63;1.92;;;;;;;;;;4905077;28;20065;-70
2023/03/26 09:18:56;;;;;;;7.70;2.05;;;;;;;;;;4895577;28;20090;-71
2023/03/26 09:21:52;;;;;;;8.15;2.03;;;;;;;;;;4918457;28;20074;-70
2023/03/26 09:24:36;;;;;;;8.25;2.25;;;;;;;;;;4846283;29;20065;-68
2023/03/26 09:27:15;;;;;;;8.07;2.33;;;;;;;;;;4905391;28;20091;-70
2023/03/26 09:30:03;;;;;;;8.35;2.13;;;;;;;;;;4920879;28;20059;-71
2023/03/26 09:32:42;;;;;;;9.60;2.20;;;;;;;;;;4916445;28;20058;-71
2023/03/26 09:35:13;;;;;;;10.50;2.30;;;;;;;;;;4894275;28;20407;-68
2023/03/26 09:38:02;;;;;;;8.18;1.92;;;;;;;;;;4919325;28;20153;-68
2023/03/26 09:40:35;;;;;;;8.45;2.28;;;;;;;;;;4910047;28;20056;-71
2023/03/26 09:43:16;;;;;;;10.73;2.30;;;;;;;;;;4922975;28;20058;-67
2023/03/26 09:45:51;;;;;;;6.00;1.67;;;;;;;;;;4930226;28;20063;-68
2023/03/26 09:48:24;;;;;;;7.00;1.90;;;;;;;;;;4935165;28;20055;-70
2023/03/26 09:50:57;;;;;;;5.07;1.90;;;;;;;;;;4933208;28;20051;-70
2023/03/26 09:53:43;;;;;;;12.30;2.28;;;;;;;;;;4908174;28;20150;-68
2023/03/26 09:56:16;;;;;;;7.10;2.42;;;;;;;;;;4916044;28;20055;-67
2023/03/26 09:59:07;;;;;;;8.98;2.05;;;;;;;;;;4926767;28;20165;-70
2023/03/26 10:01:37;;;;;;;6.78;2.17;;;;;;;;;;4936018;28;20063;-71
2023/03/26 10:04:22;;;;;;;6.97;1.77;;;;;;;;;;4912732;28;20210;-67
2023/03/26 10:06:52;;;;;;;12.75;2.22;;;;;;;;;;4893857;28;20171;-68
2023/03/26 10:09:41;;;;;;;7.88;1.95;;;;;;;;;;4915728;28;20149;-70
2023/03/26 10:12:15;;;;;;;11.43;2.13;;;;;;;;;;4918336;28;20101;-68
2023/03/26 10:14:46;;;;;;;9.38;2.63;;;;;;;;;;4921260;28;20126;-69
2023/03/26 10:17:24;;;;;;;13.27;2.85;;;;;;;;;;4923414;28;20094;-68
2023/03/26 10:19:57;;;;;;;11.20;2.78;;;;;;;;;;4938306;28;20061;-68
2023/03/26 10:22:33;;;;;;;8.68;2.55;;;;;;;;;;4913654;28;20143;-68
2023/03/26 10:25:06;;;;;;;7.75;2.30;;;;;;;;;;4900785;28;20151;-69
2023/03/26 10:27:39;;;;;;;10.00;2.60;;;;;;;;;;4923870;28;20055;-67
2023/03/26 10:30:21;;;;;;;7.25;2.30;;;;;;;;;;4938437;28;20053;-67
2023/03/26 10:32:53;;;;;;;11.00;2.40;;;;;;;;;;4926378;28;20079;-67
2023/03/26 10:35:28;;;;;;;8.77;2.63;;;;;;;;;;4919913;28;20150;-69
2023/03/26 10:38:06;;;;;;;11.00;2.67;;;;;;;;;;4951402;28;20054;-69
2023/03/26 10:40:34;;;;;;;8.10;2.38;;;;;;;;;;4900341;28;20063;-70
2023/03/26 10:43:20;;;;;;;9.40;2.58;;;;;;;;;;4905777;28;20043;-70
2023/03/26 10:46:01;;;;;;;7.60;2.38;;;;;;;;;;4919652;28;20059;-68
2023/03/26 10:48:33;;;;;;;10.90;2.30;;;;;;;;;;4926821;28;20110;-68
2023/03/26 10:51:19;;;;;;;12.07;2.40;;;;;;;;;;4926995;28;20074;-70
2023/03/26 10:53:47;;;;;;;8.88;2.35;;;;;;;;;;4936513;28;20094;-67
2023/03/26 10:56:17;;;;;;;8.30;2.13;;;;;;;;;;4932699;28;20074;-69
2023/03/26 10:58:46;;;;;;;8.60;2.22;;;;;;;;;;4939637;28;20052;-69
2023/03/26 11:01:20;;;;;;;10.85;2.45;;;;;;;;;;4935527;28;20062;-69
2023/03/26 11:03:50;;;;;;;8.07;2.10;;;;;;;;;;4921714;28;20082;-66
2023/03/26 11:06:26;;;;;;;7.25;2.28;;;;;;;;;;4935514;28;20059;-67
2023/03/26 11:08:56;;;;;;;5.95;2.10;;;;;;;;;;4934630;28;20048;-67
2023/03/26 11:11:28;;;;;;;6.50;2.17;;;;;;;;;;4919143;28;20059;-68
2023/03/26 11:13:58;;;;;;;7.50;2.72;;;;;;;;;;4916031;28;20054;-69
2023/03/26 11:16:29;;;;;;;6.40;1.95;;;;;;;;;;4916724;28;20137;-68
2023/03/26 11:19:01;;;;;;;8.73;2.08;;;;;;;;;;4934518;28;20043;-67
2023/03/26 11:21:33;;;;;;;5.25;2.10;;;;;;;;;;4929169;28;20063;-67
2023/03/26 11:24:06;;;;;;;9.30;2.05;;;;;;;;;;4936647;28;20082;-67
2023/03/26 11:26:36;;;;;;;6.45;2.15;;;;;;;;;;4917386;28;20077;-67
2023/03/26 11:29:21;;;;;;;7.63;2.03;;;;;;;;;;4926625;28;20146;-68
2023/03/26 11:31:54;;;;;;;4.97;1.98;;;;;;;;;;4937520;28;20059;-69
2023/03/26 11:34:22;;;;;;;6.65;1.95;;;;;;;;;;4925307;28;20111;-67
2023/03/26 11:36:51;;;;;;;6.95;2.10;;;;;;;;;;4908802;28;20086;-68
2023/03/26 11:39:22;;;;;;;8.68;2.78;;;;;;;;;;4933393;28;20289;-67
2023/03/26 11:41:49;;;;;;;4.57;1.63;;;;;;;;;;4950390;28;20066;-68
2023/03/26 11:44:21;;;;;;;6.65;2.50;;;;;;;;;;4935891;28;20051;-67
2023/03/26 11:46:49;;;;;;;8.70;2.47;;;;;;;;;;4911289;29;20055;-69
2023/03/26 11:49:19;;;;;;;7.40;2.72;;;;;;;;;;4922882;28;20051;-68
2023/03/26 11:51:47;;;;;;;7.20;2.75;;;;;;;;;;4940910;28;20065;-68
2023/03/26 11:54:15;;;;;;;10.05;2.50;;;;;;;;;;4914625;28;20089;-68
2023/03/26 11:56:43;;;;;;;8.80;2.45;;;;;;;;;;4917440;28;20055;-68
2023/03/26 11:59:11;;;;;;;7.72;2.78;;;;;;;;;;4940866;28;20051;-67
2023/03/26 12:01:42;;;;;;;6.80;2.78;;;;;;;;;;4942742;28;20239;-67
2023/03/26 12:04:12;;;;;;;6.50;2.75;;;;;;;;;;4931667;28;20114;-68
2023/03/26 12:06:50;;;;;;;6.53;2.45;;;;;;;;;;4901487;28;20123;-67
2023/03/26 12:09:17;;;;;;;6.50;2.70;;;;;;;;;;4952403;28;20407;-67
2023/03/26 12:11:44;;;;;;;7.32;2.40;;;;;;;;;;4930323;28;20154;-67
2023/03/26 12:14:16;;;;;;;12.07;2.67;;;;;;;;;;4933042;28;20058;-67
2023/03/26 12:16:58;;;;;;;6.95;2.80;;;;;;;;;;4917279;28;20198;-68
2023/03/26 12:19:27;;;;;;;8.18;3.38;;;;;;;;;;4966200;28;20050;-67
2023/03/26 12:21:55;;;;;;;6.13;2.63;;;;;;;;;;4928722;28;20164;-67
2023/03/26 12:24:28;;;;;;;7.97;2.63;;;;;;;;;;4938588;28;20082;-67
2023/03/26 12:26:57;;;;;;;7.85;2.63;;;;;;;;;;4925393;28;20055;-65
2023/03/26 12:29:23;;;;;;;6.95;2.47;;;;;;;;;;4945629;28;20053;-68
2023/03/26 12:31:55;;;;;;;9.25;2.80;;;;;;;;;;4944016;28;20153;-67
2023/03/26 12:34:28;;;;;;;7.45;2.95;;;;;;;;;;4955642;28;20043;-68
2023/03/26 12:36:58;;;;;;;8.98;2.47;;;;;;;;;;4907844;28;20074;-68
2023/03/26 12:39:28;;;;;;;10.32;2.63;;;;;;;;;;4939421;28;20115;-67
2023/03/26 12:41:57;;;;;;;8.70;2.72;;;;;;;;;;4926768;28;21801;-68
2023/03/26 12:44:26;;;;;;;6.60;2.47;;;;;;;;;;4932826;28;20058;-68
2023/03/26 12:47:07;;;;;;;13.50;2.42;;;;;;;;;;4916445;28;20052;-66
2023/03/26 12:49:34;;;;;;;8.20;2.38;;;;;;;;;;4927565;28;20055;-68
2023/03/26 12:52:09;;;;;;;7.57;2.45;;;;;;;;;;4910845;28;20058;-68
2023/03/26 12:54:43;;;;;;;10.23;2.70;;;;;;;;;;4935393;29;20199;-68
2023/03/26 12:57:29;;;;;;;9.93;2.17;;;;;;;;;;4940389;28;20169;-68
2023/03/26 13:00:05;;;;;;;11.38;2.45;;;;;;;;;;4934228;28;20066;-68
2023/03/26 13:02:52;;;;;;;9.40;2.13;;;;;;;;;;4937200;28;20061;-68
2023/03/26 13:05:31;;;;;;;11.93;2.35;;;;;;;;;;4931371;28;20054;-67
2023/03/26 13:08:03;;;;;;;8.07;2.40;;;;;;;;;;4924331;28;20055;-68
2023/03/26 13:10:44;;;;;;;8.43;2.08;;;;;;;;;;4951769;28;20073;-69
2023/03/26 13:13:29;;;;;;;9.63;2.33;;;;;;;;;;4930317;28;20058;-67
2023/03/26 13:16:00;;;;;;;11.38;2.55;;;;;;;;;;4931050;28;20059;-69
2023/03/26 13:18:34;;;;;;;10.82;2.33;;;;;;;;;;4904908;28;20039;-69
2023/03/26 13:21:04;;;;;;;8.20;2.30;;;;;;;;;;4951421;28;20057;-69
2023/03/26 13:23:39;;;;;;;7.50;1.95;;;;;;;;;;4935920;28;20170;-68
2023/03/26 13:26:10;;;;;;;9.75;2.10;;;;;;;;;;4944505;28;20078;-69
2023/03/26 13:28:42;;;;;;;8.75;2.38;;;;;;;;;;4931632;28;20081;-69
2023/03/26 13:31:10;;;;;;;10.27;2.95;;;;;;;;;;4942123;28;20054;-69
2023/03/26 13:33:45;;;;;;;6.93;2.10;;;;;;;;;;4952226;28;20146;-69
2023/03/26 13:36:15;;;;;;;8.95;2.45;;;;;;;;;;4912343;28;20081;-69
2023/03/26 13:38:50;;;;;;;8.80;2.10;;;;;;;;;;4956861;28;20135;-68
2023/03/26 13:41:20;;;;;;;7.53;2.10;;;;;;;;;;4922602;28;20145;-69
2023/03/26 13:43:51;;;;;;;9.93;2.25;;;;;;;;;;4921897;28;20063;-67
2023/03/26 13:46:22;;;;;;;11.98;2.05;;;;;;;;;;4917645;28;20074;-69
2023/03/26 13:48:51;;;;;;;9.55;1.90;;;;;;;;;;4937883;28;20079;-67
2023/03/26 13:51:21;;;;;;;15.00;2.25;;;;;;;;;;4940487;28;20081;-70
2023/03/26 13:53:53;;;;;;;8.55;1.95;;;;;;;;;;4945657;28;20137;-67
2023/03/26 13:56:25;;;;;;;8.48;1.73;;;;;;;;;;4911857;28;20054;-68
2023/03/26 13:58:55;;;;;;;7.35;2.13;;;;;;;;;;4970029;28;20086;-69
2023/03/26 14:01:33;;;;;;;9.32;1.90;;;;;;;;;;4948201;28;20067;-67
2023/03/26 14:04:02;;;;;;;8.02;1.90;;;;;;;;;;4940776;28;20113;-66
2023/03/26 14:06:40;;;;;;;9.95;1.77;;;;;;;;;;4945774;28;20070;-69
2023/03/26 14:09:12;;;;;;;5.35;2.03;;;;;;;;;;4941368;28;20061;-67
2023/03/26 14:11:47;;;;;;;8.98;1.83;;;;;;;;;;4953963;28;20143;-69
2023/03/26 14:14:16;;;;;;;5.70;1.83;;;;;;;;;;4961206;28;20078;-69
2023/03/26 14:16:44;;;;;;;7.75;1.63;;;;;;;;;;4942461;28;20058;-70
2023/03/26 14:19:22;;;;;;;7.93;1.57;;;;;;;;;;4948813;28;20447;-68
2023/03/26 14:21:55;;;;;;;7.05;1.77;;;;;;;;;;4936395;28;20382;-67
2023/03/26 14:24:34;;;;;;;9.43;1.60;;;;;;;;;;4927669;28;20061;-68
2023/03/26 14:27:09;;;;;;;7.68;1.42;;;;;;;;;;4910768;28;20058;-69
2023/03/26 14:29:45;;;;;;;12.93;1.95;;;;;;;;;;4952732;28;20054;-69
2023/03/26 14:32:18;;;;;;;13.40;1.92;;;;;;;;;;4946196;28;20050;-68
2023/03/26 14:35:01;;;;;;;15.15;1.75;;;;;;;;;;4926696;28;20059;-66
2023/03/26 14:37:58;;;;;;;10.60;1.65;;;;;;;;;;4904053;28;20058;-71
2023/03/26 14:40:29;;;;;;;8.57;1.63;;;;;;;;;;4849551;29;20084;-70
2023/03/26 14:43:06;;;;;;;6.13;1.35;;;;;;;;;;4934270;28;20055;-70
2023/03/26 14:45:54;;;;;;;6.07;1.65;;;;;;;;;;4918590;28;20110;-71
2023/03/26 14:48:37;;;;;;;10.80;1.40;;;;;;;;;;4922854;28;20059;-71
2023/03/26 14:51:08;;;;;;;8.27;2.20;;;;;;;;;;4947113;28;20061;-67
2023/03/26 14:53:37;;;;;;;7.28;1.33;;;;;;;;;;4928612;28;20078;-69
2023/03/26 14:56:15;;;;;;;6.45;1.77;;;;;;;;;;4917393;28;20459;-71
2023/03/26 14:58:56;;;;;;;7.57;1.60;;;;;;;;;;4925380;28;20121;-71
2023/03/26 15:01:25;;;;;;;5.25;1.25;;;;;;;;;;4948902;28;21713;-69
2023/03/26 15:04:15;;;;;;;5.50;1.30;;;;;;;;;;4927949;28;20059;-68
2023/03/26 15:06:57;;;;;;;7.50;1.30;;;;;;;;;;4943745;28;20150;-70
2023/03/26 15:09:49;;;;;;;3.47;1.00;;;;;;;;;;4921980;28;21183;-70
2023/03/26 15:12:24;;;;;;;15.40;1.80;;;;;;;;;;4925016;28;20055;-68
2023/03/26 15:15:09;;;;;;;10.32;1.52;;;;;;;;;;4926199;28;20047;-68
2023/03/26 15:17:49;;;;;;;5.32;1.33;;;;;;;;;;4903310;28;20145;-68